DEUTP EDXH-EDDW
Flight info
| Callsign | DEUTP |
|---|---|
| Flight time | 0h 46m |
| Altitude | 7000 |
| Route | DCT ROCZO/N0174F050 IFR DCT AMCUB DCT NOSNO DCT MIZUH T948 GIBMA GIBMA2P |
| Aircraft | S22T/L-SDGRY/S |
Departure
| Time | 2026-05-06 18:26 |
|---|---|
| Airport | Helgoland-Düne Airport (EDXH) |
Arrival
| Time | 2026-05-06 19:12 |
|---|---|
| Airport | Bremen Airport (EDDW) |
| Time | Latitude | Longitude | Altitude | Speed | Heading |
|---|---|---|---|---|---|
| 2026-05-06 17:58 | 54.18659 | 7.91453 | 5 ft | 0 kts | 144° |
| 2026-05-06 18:19 | 54.18657 | 7.91456 | 5 ft | 5 kts | 152° |
| 2026-05-06 18:19 | 54.18627 | 7.91415 | 5 ft | 12 kts | 183° |
| 2026-05-06 18:19 | 54.18552 | 7.91413 | 5 ft | 17 kts | 146° |
| 2026-05-06 18:20 | 54.18423 | 7.91558 | 6 ft | 28 kts | 145° |
| 2026-05-06 18:20 | 54.18308 | 7.91670 | 9 ft | 10 kts | 148° |
| 2026-05-06 18:20 | 54.18316 | 7.91688 | 9 ft | 0 kts | 321° |
| 2026-05-06 18:25 | 54.18412 | 7.91571 | 6 ft | 52 kts | 324° |
| 2026-05-06 18:25 | 54.18792 | 7.91061 | 190 ft | 81 kts | 328° |
| 2026-05-06 18:25 | 54.19266 | 7.90368 | 465 ft | 97 kts | 326° |
| 2026-05-06 18:26 | 54.19798 | 7.89574 | 764 ft | 99 kts | 341° |
| 2026-05-06 18:26 | 54.20432 | 7.89721 | 1115 ft | 99 kts | 35° |
| 2026-05-06 18:26 | 54.20742 | 7.90743 | 1518 ft | 101 kts | 63° |
| 2026-05-06 18:26 | 54.20933 | 7.92040 | 1646 ft | 126 kts | 87° |
| 2026-05-06 18:27 | 54.20485 | 7.93459 | 1775 ft | 154 kts | 131° |
| 2026-05-06 18:27 | 54.19418 | 7.93911 | 2038 ft | 163 kts | 182° |
| 2026-05-06 18:27 | 54.18413 | 7.93509 | 2668 ft | 141 kts | 190° |
| 2026-05-06 18:27 | 54.17509 | 7.92942 | 3125 ft | 136 kts | 197° |
| 2026-05-06 18:28 | 54.16641 | 7.92328 | 3556 ft | 136 kts | 198° |
| 2026-05-06 18:28 | 54.15782 | 7.91560 | 3862 ft | 147 kts | 224° |
| 2026-05-06 18:28 | 54.15509 | 7.90018 | 4333 ft | 136 kts | 284° |
| 2026-05-06 18:28 | 54.16062 | 7.88871 | 4707 ft | 124 kts | 347° |
| 2026-05-06 18:29 | 54.16833 | 7.89128 | 5003 ft | 120 kts | 42° |
| 2026-05-06 18:29 | 54.17206 | 7.90516 | 5021 ft | 141 kts | 74° |
| 2026-05-06 18:29 | 54.17454 | 7.92222 | 4959 ft | 156 kts | 74° |
| 2026-05-06 18:29 | 54.17725 | 7.94037 | 4941 ft | 157 kts | 74° |
| 2026-05-06 18:30 | 54.17997 | 7.95830 | 4942 ft | 158 kts | 74° |
| 2026-05-06 18:30 | 54.18268 | 7.97640 | 4940 ft | 157 kts | 74° |
| 2026-05-06 18:30 | 54.18533 | 7.99441 | 4943 ft | 155 kts | 74° |
| 2026-05-06 18:30 | 54.18794 | 8.01228 | 4940 ft | 156 kts | 74° |
| 2026-05-06 18:31 | 54.19056 | 8.03021 | 4943 ft | 156 kts | 74° |
| 2026-05-06 18:31 | 54.19322 | 8.04819 | 4945 ft | 156 kts | 73° |
| 2026-05-06 18:31 | 54.19589 | 8.06614 | 4942 ft | 156 kts | 74° |
| 2026-05-06 18:31 | 54.19848 | 8.08401 | 4933 ft | 154 kts | 75° |
| 2026-05-06 18:32 | 54.19754 | 8.10218 | 4915 ft | 162 kts | 110° |
| 2026-05-06 18:32 | 54.18999 | 8.11629 | 5112 ft | 158 kts | 141° |
| 2026-05-06 18:32 | 54.18021 | 8.12188 | 5609 ft | 141 kts | 170° |
| 2026-05-06 18:32 | 54.17075 | 8.12170 | 6014 ft | 135 kts | 175° |
| 2026-05-06 18:33 | 54.16126 | 8.12170 | 6281 ft | 137 kts | 174° |
| 2026-05-06 18:33 | 54.15177 | 8.12164 | 6562 ft | 136 kts | 175° |
| 2026-05-06 18:33 | 54.14227 | 8.12153 | 6849 ft | 135 kts | 176° |
| 2026-05-06 18:33 | 54.13254 | 8.12143 | 6920 ft | 147 kts | 176° |
| 2026-05-06 18:34 | 54.12193 | 8.12129 | 6928 ft | 158 kts | 176° |
| 2026-05-06 18:34 | 54.11071 | 8.12117 | 6933 ft | 165 kts | 176° |
| 2026-05-06 18:34 | 54.09908 | 8.12112 | 6934 ft | 169 kts | 174° |
| 2026-05-06 18:34 | 54.08731 | 8.12109 | 6932 ft | 173 kts | 175° |
| 2026-05-06 18:35 | 54.07527 | 8.12104 | 6934 ft | 174 kts | 174° |
| 2026-05-06 18:35 | 54.06311 | 8.12093 | 6931 ft | 175 kts | 174° |
| 2026-05-06 18:35 | 54.05087 | 8.12096 | 6931 ft | 175 kts | 177° |
| 2026-05-06 18:35 | 54.03863 | 8.12081 | 6930 ft | 176 kts | 175° |
| 2026-05-06 18:36 | 54.02641 | 8.12077 | 6926 ft | 175 kts | 177° |
| 2026-05-06 18:36 | 54.01426 | 8.12069 | 6926 ft | 174 kts | 176° |
| 2026-05-06 18:36 | 54.00207 | 8.12065 | 6922 ft | 175 kts | 177° |
| 2026-05-06 18:36 | 53.98992 | 8.12065 | 6926 ft | 174 kts | 177° |
| 2026-05-06 18:37 | 53.97779 | 8.12050 | 6923 ft | 175 kts | 175° |
| 2026-05-06 18:37 | 53.96556 | 8.12049 | 6926 ft | 176 kts | 173° |
| 2026-05-06 18:37 | 53.95330 | 8.12045 | 6926 ft | 176 kts | 173° |
| 2026-05-06 18:37 | 53.94100 | 8.12040 | 6927 ft | 177 kts | 174° |
| 2026-05-06 18:38 | 53.92866 | 8.12032 | 6927 ft | 177 kts | 174° |
| 2026-05-06 18:38 | 53.91634 | 8.12028 | 6926 ft | 177 kts | 174° |
| 2026-05-06 18:38 | 53.90416 | 8.12019 | 6927 ft | 177 kts | 174° |
| 2026-05-06 18:38 | 53.89186 | 8.12014 | 6927 ft | 176 kts | 174° |
| 2026-05-06 18:39 | 53.87966 | 8.12013 | 6927 ft | 175 kts | 175° |
| 2026-05-06 18:39 | 53.86752 | 8.12000 | 6922 ft | 174 kts | 174° |
| 2026-05-06 18:39 | 53.85538 | 8.11996 | 6920 ft | 174 kts | 174° |
| 2026-05-06 18:40 | 53.83120 | 8.11985 | 6918 ft | 173 kts | 175° |
| 2026-05-06 18:40 | 53.81919 | 8.11977 | 6923 ft | 172 kts | 176° |
| 2026-05-06 18:40 | 53.80721 | 8.11971 | 6921 ft | 173 kts | 173° |
| 2026-05-06 18:40 | 53.79515 | 8.11967 | 6918 ft | 173 kts | 173° |
| 2026-05-06 18:41 | 53.78324 | 8.11968 | 6919 ft | 173 kts | 174° |
| 2026-05-06 18:41 | 53.77110 | 8.11954 | 6917 ft | 173 kts | 173° |
| 2026-05-06 18:41 | 53.75903 | 8.11954 | 6916 ft | 173 kts | 174° |
| 2026-05-06 18:41 | 53.74696 | 8.11952 | 6917 ft | 172 kts | 176° |
| 2026-05-06 18:42 | 53.73515 | 8.11940 | 6914 ft | 171 kts | 176° |
| 2026-05-06 18:42 | 53.72325 | 8.11934 | 6914 ft | 171 kts | 176° |
| 2026-05-06 18:42 | 53.71134 | 8.11930 | 6915 ft | 171 kts | 176° |
| 2026-05-06 18:42 | 53.69939 | 8.11926 | 6916 ft | 172 kts | 176° |
| 2026-05-06 18:43 | 53.68739 | 8.11920 | 6917 ft | 172 kts | 176° |
| 2026-05-06 18:43 | 53.67539 | 8.11914 | 6913 ft | 172 kts | 176° |
| 2026-05-06 18:43 | 53.66336 | 8.11908 | 6918 ft | 173 kts | 176° |
| 2026-05-06 18:43 | 53.65131 | 8.11901 | 6916 ft | 173 kts | 176° |
| 2026-05-06 18:44 | 53.63927 | 8.11897 | 6913 ft | 173 kts | 176° |
| 2026-05-06 18:44 | 53.62724 | 8.11891 | 6912 ft | 173 kts | 176° |
| 2026-05-06 18:44 | 53.61523 | 8.11883 | 6911 ft | 173 kts | 175° |
| 2026-05-06 18:44 | 53.60355 | 8.12098 | 6908 ft | 169 kts | 156° |
| 2026-05-06 18:45 | 53.59351 | 8.13062 | 6913 ft | 165 kts | 135° |
| 2026-05-06 18:45 | 53.58575 | 8.14460 | 6915 ft | 163 kts | 128° |
| 2026-05-06 18:45 | 53.57799 | 8.15856 | 6916 ft | 164 kts | 129° |
| 2026-05-06 18:45 | 53.57281 | 8.16790 | 6911 ft | 164 kts | 128° |
| 2026-05-06 18:46 | 53.56242 | 8.18671 | 6910 ft | 164 kts | 128° |
| 2026-05-06 18:46 | 53.55467 | 8.20078 | 6916 ft | 164 kts | 128° |
| 2026-05-06 18:46 | 53.54690 | 8.21484 | 6916 ft | 164 kts | 127° |
| 2026-05-06 18:46 | 53.53914 | 8.22893 | 6913 ft | 164 kts | 127° |
| 2026-05-06 18:47 | 53.53141 | 8.24293 | 6914 ft | 163 kts | 128° |
| 2026-05-06 18:47 | 53.52366 | 8.25693 | 6912 ft | 163 kts | 128° |
| 2026-05-06 18:47 | 53.51593 | 8.27089 | 6911 ft | 163 kts | 128° |
| 2026-05-06 18:47 | 53.50831 | 8.28468 | 6910 ft | 163 kts | 129° |
| 2026-05-06 18:48 | 53.50056 | 8.29868 | 6908 ft | 164 kts | 129° |
| 2026-05-06 18:48 | 53.49276 | 8.31278 | 6908 ft | 165 kts | 129° |
| 2026-05-06 18:48 | 53.48493 | 8.32690 | 6908 ft | 165 kts | 129° |
| 2026-05-06 18:48 | 53.47709 | 8.34102 | 6906 ft | 165 kts | 129° |
| 2026-05-06 18:49 | 53.46923 | 8.35516 | 6909 ft | 166 kts | 129° |
| 2026-05-06 18:49 | 53.46137 | 8.36935 | 6909 ft | 166 kts | 129° |
| 2026-05-06 18:49 | 53.45347 | 8.38355 | 6909 ft | 166 kts | 129° |
| 2026-05-06 18:49 | 53.44559 | 8.39776 | 6911 ft | 166 kts | 129° |
| 2026-05-06 18:50 | 53.43769 | 8.41189 | 6911 ft | 165 kts | 129° |
| 2026-05-06 18:50 | 53.42986 | 8.42599 | 6911 ft | 165 kts | 129° |
| 2026-05-06 18:50 | 53.42204 | 8.44003 | 6910 ft | 165 kts | 129° |
| 2026-05-06 18:50 | 53.41422 | 8.45406 | 6910 ft | 165 kts | 129° |
| 2026-05-06 18:51 | 53.40651 | 8.46791 | 6901 ft | 164 kts | 129° |
| 2026-05-06 18:51 | 53.39868 | 8.48193 | 6901 ft | 164 kts | 129° |
| 2026-05-06 18:51 | 53.39084 | 8.49598 | 6900 ft | 164 kts | 129° |
| 2026-05-06 18:51 | 53.38304 | 8.50995 | 6900 ft | 164 kts | 129° |
| 2026-05-06 18:52 | 53.37351 | 8.52076 | 6824 ft | 173 kts | 159° |
| 2026-05-06 18:52 | 53.36131 | 8.52136 | 6699 ft | 176 kts | 184° |
| 2026-05-06 18:52 | 53.34942 | 8.51918 | 6577 ft | 173 kts | 183° |
| 2026-05-06 18:52 | 53.33751 | 8.51700 | 6454 ft | 171 kts | 183° |
| 2026-05-06 18:53 | 53.32570 | 8.51483 | 6330 ft | 170 kts | 183° |
| 2026-05-06 18:53 | 53.31393 | 8.51259 | 6199 ft | 170 kts | 183° |
| 2026-05-06 18:53 | 53.30219 | 8.51032 | 6066 ft | 169 kts | 183° |
| 2026-05-06 18:53 | 53.29048 | 8.50801 | 5934 ft | 169 kts | 183° |
| 2026-05-06 18:54 | 53.27877 | 8.50566 | 5802 ft | 169 kts | 183° |
| 2026-05-06 18:54 | 53.26710 | 8.50328 | 5672 ft | 169 kts | 183° |
| 2026-05-06 18:54 | 53.25544 | 8.50091 | 5542 ft | 168 kts | 183° |
| 2026-05-06 18:54 | 53.24378 | 8.49853 | 5414 ft | 168 kts | 183° |
| 2026-05-06 18:55 | 53.23216 | 8.49605 | 5279 ft | 169 kts | 183° |
| 2026-05-06 18:55 | 53.22060 | 8.49349 | 5076 ft | 167 kts | 184° |
| 2026-05-06 18:55 | 53.20918 | 8.49089 | 4869 ft | 168 kts | 183° |
| 2026-05-06 18:55 | 53.19748 | 8.48825 | 4667 ft | 171 kts | 183° |
| 2026-05-06 18:56 | 53.18562 | 8.48560 | 4458 ft | 173 kts | 183° |
| 2026-05-06 18:56 | 53.17367 | 8.48291 | 4264 ft | 174 kts | 183° |
| 2026-05-06 18:56 | 53.16168 | 8.48014 | 4057 ft | 174 kts | 184° |
| 2026-05-06 18:56 | 53.14970 | 8.47737 | 3850 ft | 173 kts | 184° |
| 2026-05-06 18:57 | 53.13780 | 8.47468 | 3644 ft | 172 kts | 183° |
| 2026-05-06 18:57 | 53.12595 | 8.47199 | 3438 ft | 172 kts | 183° |
| 2026-05-06 18:57 | 53.11808 | 8.47015 | 3302 ft | 172 kts | 183° |
| 2026-05-06 18:57 | 53.10221 | 8.46648 | 3035 ft | 172 kts | 183° |
| 2026-05-06 18:58 | 53.09455 | 8.46470 | 3018 ft | 165 kts | 183° |
| 2026-05-06 18:58 | 53.08351 | 8.46202 | 3008 ft | 157 kts | 183° |
| 2026-05-06 18:58 | 53.07290 | 8.45939 | 3007 ft | 151 kts | 183° |
| 2026-05-06 18:58 | 53.06264 | 8.45682 | 3008 ft | 147 kts | 183° |
| 2026-05-06 18:59 | 53.05244 | 8.45437 | 3007 ft | 149 kts | 183° |
| 2026-05-06 18:59 | 53.04218 | 8.45183 | 3008 ft | 150 kts | 183° |
| 2026-05-06 18:59 | 53.03182 | 8.44925 | 3008 ft | 150 kts | 183° |
| 2026-05-06 18:59 | 53.02159 | 8.44668 | 3007 ft | 151 kts | 183° |
| 2026-05-06 19:00 | 53.01121 | 8.44407 | 3011 ft | 151 kts | 183° |
| 2026-05-06 19:00 | 53.00118 | 8.44149 | 3009 ft | 145 kts | 183° |
| 2026-05-06 19:00 | 52.99112 | 8.43892 | 3009 ft | 147 kts | 183° |
| 2026-05-06 19:00 | 52.98102 | 8.43635 | 3003 ft | 147 kts | 183° |
| 2026-05-06 19:01 | 52.97087 | 8.43377 | 3004 ft | 147 kts | 182° |
| 2026-05-06 19:01 | 52.96166 | 8.43765 | 3007 ft | 133 kts | 129° |
| 2026-05-06 19:01 | 52.95925 | 8.45065 | 3012 ft | 117 kts | 70° |
| 2026-05-06 19:01 | 52.96514 | 8.45880 | 3022 ft | 120 kts | 12° |
| 2026-05-06 19:02 | 52.97358 | 8.45828 | 3024 ft | 121 kts | 3° |
| 2026-05-06 19:02 | 52.98203 | 8.45776 | 3026 ft | 122 kts | 4° |
| 2026-05-06 19:02 | 52.99055 | 8.45720 | 3026 ft | 123 kts | 4° |
| 2026-05-06 19:02 | 52.99910 | 8.45659 | 3026 ft | 123 kts | 3° |
| 2026-05-06 19:03 | 53.00765 | 8.45597 | 3023 ft | 123 kts | 3° |
| 2026-05-06 19:03 | 53.01609 | 8.45535 | 3024 ft | 123 kts | 4° |
| 2026-05-06 19:03 | 53.02461 | 8.45471 | 3024 ft | 123 kts | 3° |
| 2026-05-06 19:03 | 53.03316 | 8.45406 | 3024 ft | 123 kts | 3° |
| 2026-05-06 19:04 | 53.04170 | 8.45341 | 3021 ft | 123 kts | 3° |
| 2026-05-06 19:04 | 53.05026 | 8.45280 | 3021 ft | 123 kts | 3° |
| 2026-05-06 19:04 | 53.05883 | 8.45219 | 3021 ft | 123 kts | 3° |
| 2026-05-06 19:04 | 53.06743 | 8.45160 | 3020 ft | 123 kts | 3° |
| 2026-05-06 19:05 | 53.07586 | 8.45098 | 3022 ft | 122 kts | 3° |
| 2026-05-06 19:05 | 53.08339 | 8.45527 | 3009 ft | 117 kts | 50° |
| 2026-05-06 19:05 | 53.08431 | 8.46831 | 3006 ft | 125 kts | 107° |
| 2026-05-06 19:05 | 53.07705 | 8.47735 | 2936 ft | 146 kts | 159° |
| 2026-05-06 19:06 | 53.06678 | 8.48030 | 2822 ft | 152 kts | 163° |
| 2026-05-06 19:06 | 53.05716 | 8.48644 | 2696 ft | 145 kts | 130° |
| 2026-05-06 19:06 | 53.05059 | 8.49895 | 2580 ft | 144 kts | 123° |
| 2026-05-06 19:06 | 53.04401 | 8.51151 | 2524 ft | 142 kts | 123° |
| 2026-05-06 19:07 | 53.03844 | 8.52416 | 2517 ft | 131 kts | 102° |
| 2026-05-06 19:07 | 53.03975 | 8.53777 | 2515 ft | 119 kts | 62° |
| 2026-05-06 19:07 | 53.04114 | 8.55125 | 2508 ft | 114 kts | 80° |
| 2026-05-06 19:07 | 53.04173 | 8.56317 | 2506 ft | 95 kts | 80° |
| 2026-05-06 19:08 | 53.04220 | 8.57358 | 2512 ft | 92 kts | 78° |
| 2026-05-06 19:08 | 53.04264 | 8.58499 | 2466 ft | 106 kts | 81° |
| 2026-05-06 19:08 | 53.04290 | 8.59815 | 2337 ft | 120 kts | 83° |
| 2026-05-06 19:08 | 53.04321 | 8.61259 | 2171 ft | 130 kts | 83° |
| 2026-05-06 19:09 | 53.04354 | 8.62802 | 1979 ft | 137 kts | 83° |
| 2026-05-06 19:09 | 53.04389 | 8.64406 | 1795 ft | 141 kts | 83° |
| 2026-05-06 19:09 | 53.04422 | 8.66048 | 1596 ft | 144 kts | 84° |
| 2026-05-06 19:09 | 53.04445 | 8.67636 | 1405 ft | 129 kts | 83° |
| 2026-05-06 19:10 | 53.04483 | 8.69062 | 1222 ft | 118 kts | 82° |
| 2026-05-06 19:10 | 53.04514 | 8.70367 | 1061 ft | 110 kts | 82° |
| 2026-05-06 19:10 | 53.04536 | 8.71613 | 903 ft | 106 kts | 83° |
| 2026-05-06 19:10 | 53.04561 | 8.72806 | 756 ft | 98 kts | 83° |
| 2026-05-06 19:11 | 53.04578 | 8.73858 | 656 ft | 88 kts | 84° |
| 2026-05-06 19:11 | 53.04605 | 8.74871 | 436 ft | 87 kts | 82° |
| 2026-05-06 19:11 | 53.04623 | 8.75868 | 247 ft | 86 kts | 81° |
| 2026-05-06 19:11 | 53.04646 | 8.76856 | 110 ft | 85 kts | 83° |
| 2026-05-06 19:12 | 53.04666 | 8.77811 | 17 ft | 76 kts | 83° |
| 2026-05-06 19:12 | 53.04683 | 8.78543 | 15 ft | 48 kts | 90° |
| 2026-05-06 19:12 | 53.04693 | 8.78868 | 15 ft | 24 kts | 84° |
| 2026-05-06 19:12 | 53.04698 | 8.79161 | 15 ft | 27 kts | 91° |
| 2026-05-06 19:13 | 53.04795 | 8.79292 | 14 ft | 19 kts | 358° |
| 2026-05-06 19:13 | 53.04861 | 8.79165 | 14 ft | 20 kts | 267° |
| 2026-05-06 19:13 | 53.04855 | 8.78902 | 14 ft | 21 kts | 268° |
| 2026-05-06 19:13 | 53.04851 | 8.78708 | 14 ft | 21 kts | 267° |
| 2026-05-06 19:14 | 53.04850 | 8.78481 | 14 ft | 20 kts | 274° |
| 2026-05-06 19:14 | 53.04895 | 8.78320 | 14 ft | 19 kts | 319° |
| 2026-05-06 19:14 | 53.05003 | 8.78235 | 14 ft | 18 kts | 322° |
| 2026-05-06 19:14 | 53.05083 | 8.78118 | 14 ft | 0 kts | 318° |
| 2026-05-06 19:15 | 53.05092 | 8.78083 | 14 ft | 4 kts | 229° |
| 2026-05-06 19:15 | 53.05069 | 8.78062 | 14 ft | 2 kts | 81° |
| 2026-05-06 19:15 | 53.05073 | 8.78066 | 14 ft | 0 kts | 0° |